sensor_id;sensor_type;location;lat;lon;timestamp;temperature;humidity
37032;DHT22;22940;52.266;10.536;2022-11-13T00:01:42;9.30;1.00
37032;DHT22;22940;52.266;10.536;2022-11-13T00:04:08;9.30;1.00
37032;DHT22;22940;52.266;10.536;2022-11-13T00:06:35;9.30;1.00
37032;DHT22;22940;52.266;10.536;2022-11-13T00:09:00;9.40;1.00
37032;DHT22;22940;52.266;10.536;2022-11-13T00:11:26;9.50;1.00
37032;DHT22;22940;52.266;10.536;2022-11-13T00:13:51;9.40;1.00
37032;DHT22;22940;52.266;10.536;2022-11-13T00:16:18;9.50;1.00
37032;DHT22;22940;52.266;10.536;2022-11-13T00:18:44;9.40;1.00
37032;DHT22;22940;52.266;10.536;2022-11-13T00:21:10;9.40;1.00
37032;DHT22;22940;52.266;10.536;2022-11-13T00:23:37;9.40;1.00
37032;DHT22;22940;52.266;10.536;2022-11-13T00:26:06;9.40;1.00
37032;DHT22;22940;52.266;10.536;2022-11-13T00:28:32;9.40;1.00
37032;DHT22;22940;52.266;10.536;2022-11-13T00:31:01;9.40;1.00
37032;DHT22;22940;52.266;10.536;2022-11-13T00:33:26;9.40;1.00
37032;DHT22;22940;52.266;10.536;2022-11-13T00:35:52;9.30;1.00
37032;DHT22;22940;52.266;10.536;2022-11-13T00:38:18;9.30;1.00
37032;DHT22;22940;52.266;10.536;2022-11-13T00:40:43;9.20;1.00
37032;DHT22;22940;52.266;10.536;2022-11-13T00:43:09;9.10;1.00
37032;DHT22;22940;52.266;10.536;2022-11-13T00:45:35;9.20;1.00
37032;DHT22;22940;52.266;10.536;2022-11-13T00:48:00;9.20;1.00
37032;DHT22;22940;52.266;10.536;2022-11-13T00:50:26;8.90;1.00
37032;DHT22;22940;52.266;10.536;2022-11-13T00:52:52;8.80;1.00
37032;DHT22;22940;52.266;10.536;2022-11-13T00:55:17;8.70;1.00
37032;DHT22;22940;52.266;10.536;2022-11-13T00:57:42;8.90;1.00
37032;DHT22;22940;52.266;10.536;2022-11-13T01:00:08;8.60;1.00
37032;DHT22;22940;52.266;10.536;2022-11-13T01:02:34;8.40;1.00
37032;DHT22;22940;52.266;10.536;2022-11-13T01:04:59;8.50;1.00
37032;DHT22;22940;52.266;10.536;2022-11-13T01:07:25;8.70;1.00
37032;DHT22;22940;52.266;10.536;2022-11-13T01:09:50;8.60;1.00
37032;DHT22;22940;52.266;10.536;2022-11-13T01:12:16;8.40;1.00
37032;DHT22;22940;52.266;10.536;2022-11-13T01:14:42;8.40;1.00
37032;DHT22;22940;52.266;10.536;2022-11-13T01:17:07;8.60;1.00
37032;DHT22;22940;52.266;10.536;2022-11-13T01:19:33;8.80;1.00
37032;DHT22;22940;52.266;10.536;2022-11-13T01:21:58;8.80;1.00
37032;DHT22;22940;52.266;10.536;2022-11-13T01:24:23;8.80;1.00
37032;DHT22;22940;52.266;10.536;2022-11-13T01:26:49;8.90;1.00
37032;DHT22;22940;52.266;10.536;2022-11-13T01:29:14;8.90;1.00
37032;DHT22;22940;52.266;10.536;2022-11-13T01:31:40;8.90;1.00
37032;DHT22;22940;52.266;10.536;2022-11-13T01:34:05;8.90;1.00
37032;DHT22;22940;52.266;10.536;2022-11-13T01:36:31;8.80;1.00
37032;DHT22;22940;52.266;10.536;2022-11-13T01:38:56;8.80;1.00
37032;DHT22;22940;52.266;10.536;2022-11-13T01:41:23;8.80;1.00
37032;DHT22;22940;52.266;10.536;2022-11-13T01:43:50;8.70;1.00
37032;DHT22;22940;52.266;10.536;2022-11-13T01:46:21;8.80;1.00
37032;DHT22;22940;52.266;10.536;2022-11-13T01:48:49;8.70;1.00
37032;DHT22;22940;52.266;10.536;2022-11-13T01:51:17;8.70;1.00
37032;DHT22;22940;52.266;10.536;2022-11-13T01:53:46;8.70;1.00
37032;DHT22;22940;52.266;10.536;2022-11-13T01:56:12;8.60;1.00
37032;DHT22;22940;52.266;10.536;2022-11-13T01:58:39;8.70;1.00
37032;DHT22;22940;52.266;10.536;2022-11-13T02:01:06;8.50;1.00
37032;DHT22;22940;52.266;10.536;2022-11-13T02:03:31;8.60;1.00
37032;DHT22;22940;52.266;10.536;2022-11-13T02:05:57;8.50;1.00
37032;DHT22;22940;52.266;10.536;2022-11-13T02:08:22;8.50;1.00
37032;DHT22;22940;52.266;10.536;2022-11-13T02:10:48;8.30;1.00
37032;DHT22;22940;52.266;10.536;2022-11-13T02:13:14;8.00;1.00
37032;DHT22;22940;52.266;10.536;2022-11-13T02:15:40;7.80;1.00
37032;DHT22;22940;52.266;10.536;2022-11-13T02:18:06;7.60;1.00
37032;DHT22;22940;52.266;10.536;2022-11-13T02:20:39;7.70;1.00
37032;DHT22;22940;52.266;10.536;2022-11-13T02:23:10;7.80;1.00
37032;DHT22;22940;52.266;10.536;2022-11-13T02:25:38;7.60;1.00
37032;DHT22;22940;52.266;10.536;2022-11-13T02:28:04;7.50;1.20
37032;DHT22;22940;52.266;10.536;2022-11-13T02:30:31;7.60;1.50
37032;DHT22;22940;52.266;10.536;2022-11-13T02:32:57;7.80;1.00
37032;DHT22;22940;52.266;10.536;2022-11-13T02:35:24;7.70;1.00
37032;DHT22;22940;52.266;10.536;2022-11-13T02:37:50;7.50;1.00
37032;DHT22;22940;52.266;10.536;2022-11-13T02:40:17;7.80;1.00
37032;DHT22;22940;52.266;10.536;2022-11-13T02:42:42;7.80;1.00
37032;DHT22;22940;52.266;10.536;2022-11-13T02:45:08;8.00;1.00
37032;DHT22;22940;52.266;10.536;2022-11-13T02:47:34;8.00;1.00
37032;DHT22;22940;52.266;10.536;2022-11-13T02:49:59;7.80;1.00
37032;DHT22;22940;52.266;10.536;2022-11-13T02:52:25;7.90;1.00
37032;DHT22;22940;52.266;10.536;2022-11-13T02:54:50;7.90;1.00
37032;DHT22;22940;52.266;10.536;2022-11-13T02:57:16;7.70;1.00
37032;DHT22;22940;52.266;10.536;2022-11-13T02:59:41;7.60;1.00
37032;DHT22;22940;52.266;10.536;2022-11-13T03:02:07;7.70;1.00
37032;DHT22;22940;52.266;10.536;2022-11-13T03:04:32;7.80;1.00
37032;DHT22;22940;52.266;10.536;2022-11-13T03:06:58;7.60;1.00
37032;DHT22;22940;52.266;10.536;2022-11-13T03:09:23;7.50;1.00
37032;DHT22;22940;52.266;10.536;2022-11-13T03:11:49;7.30;1.10
37032;DHT22;22940;52.266;10.536;2022-11-13T03:14:14;7.20;7.10
37032;DHT22;22940;52.266;10.536;2022-11-13T03:16:40;7.20;7.60
37032;DHT22;22940;52.266;10.536;2022-11-13T03:19:06;6.90;8.00
37032;DHT22;22940;52.266;10.536;2022-11-13T03:21:31;6.90;15.80
37032;DHT22;22940;52.266;10.536;2022-11-13T03:23:57;6.90;15.00
37032;DHT22;22940;52.266;10.536;2022-11-13T03:26:22;6.70;21.50
37032;DHT22;22940;52.266;10.536;2022-11-13T03:28:48;6.70;22.70
37032;DHT22;22940;52.266;10.536;2022-11-13T03:31:14;6.90;21.10
37032;DHT22;22940;52.266;10.536;2022-11-13T03:33:39;6.90;20.40
37032;DHT22;22940;52.266;10.536;2022-11-13T03:36:05;7.00;18.00
37032;DHT22;22940;52.266;10.536;2022-11-13T03:38:31;7.00;15.60
37032;DHT22;22940;52.266;10.536;2022-11-13T03:40:56;7.00;15.10
37032;DHT22;22940;52.266;10.536;2022-11-13T03:43:22;6.80;15.10
37032;DHT22;22940;52.266;10.536;2022-11-13T03:45:47;6.90;16.60
37032;DHT22;22940;52.266;10.536;2022-11-13T03:48:13;6.60;17.80
37032;DHT22;22940;52.266;10.536;2022-11-13T03:50:41;6.60;18.10
37032;DHT22;22940;52.266;10.536;2022-11-13T03:53:07;6.40;23.60
37032;DHT22;22940;52.266;10.536;2022-11-13T03:55:32;6.30;30.80
37032;DHT22;22940;52.266;10.536;2022-11-13T03:57:58;6.30;29.80
37032;DHT22;22940;52.266;10.536;2022-11-13T04:00:23;6.60;29.50
37032;DHT22;22940;52.266;10.536;2022-11-13T04:02:49;6.70;26.10
37032;DHT22;22940;52.266;10.536;2022-11-13T04:05:14;6.70;19.60
37032;DHT22;22940;52.266;10.536;2022-11-13T04:07:40;6.60;18.90
37032;DHT22;22940;52.266;10.536;2022-11-13T04:10:05;6.70;15.80
37032;DHT22;22940;52.266;10.536;2022-11-13T04:12:31;6.10;20.00
37032;DHT22;22940;52.266;10.536;2022-11-13T04:14:56;5.90;26.20
37032;DHT22;22940;52.266;10.536;2022-11-13T04:17:22;5.70;27.10
37032;DHT22;22940;52.266;10.536;2022-11-13T04:19:47;5.70;33.30
37032;DHT22;22940;52.266;10.536;2022-11-13T04:22:13;5.90;35.70
37032;DHT22;22940;52.266;10.536;2022-11-13T04:24:38;6.00;30.40
37032;DHT22;22940;52.266;10.536;2022-11-13T04:27:04;6.20;27.70
37032;DHT22;22940;52.266;10.536;2022-11-13T04:29:29;6.10;23.70
37032;DHT22;22940;52.266;10.536;2022-11-13T04:31:55;6.10;25.00
37032;DHT22;22940;52.266;10.536;2022-11-13T04:34:20;6.10;23.50
37032;DHT22;22940;52.266;10.536;2022-11-13T04:36:46;6.00;21.30
37032;DHT22;22940;52.266;10.536;2022-11-13T04:39:11;6.10;20.60
37032;DHT22;22940;52.266;10.536;2022-11-13T04:41:37;5.90;18.50
37032;DHT22;22940;52.266;10.536;2022-11-13T04:44:21;5.60;25.40
37032;DHT22;22940;52.266;10.536;2022-11-13T04:46:46;5.50;26.80
37032;DHT22;22940;52.266;10.536;2022-11-13T04:49:12;5.60;28.80
37032;DHT22;22940;52.266;10.536;2022-11-13T04:51:37;5.40;29.40
37032;DHT22;22940;52.266;10.536;2022-11-13T04:54:03;5.40;34.00
37032;DHT22;22940;52.266;10.536;2022-11-13T04:56:28;5.50;36.60
37032;DHT22;22940;52.266;10.536;2022-11-13T04:58:54;5.50;33.90
37032;DHT22;22940;52.266;10.536;2022-11-13T05:01:19;5.50;32.90
37032;DHT22;22940;52.266;10.536;2022-11-13T05:03:44;5.60;35.10
37032;DHT22;22940;52.266;10.536;2022-11-13T05:06:10;5.70;31.70
37032;DHT22;22940;52.266;10.536;2022-11-13T05:08:35;5.90;31.60
37032;DHT22;22940;52.266;10.536;2022-11-13T05:11:01;6.20;26.70
37032;DHT22;22940;52.266;10.536;2022-11-13T05:13:30;6.10;22.00
37032;DHT22;22940;52.266;10.536;2022-11-13T05:16:00;6.00;21.70
37032;DHT22;22940;52.266;10.536;2022-11-13T05:18:26;6.00;23.00
37032;DHT22;22940;52.266;10.536;2022-11-13T05:20:51;6.00;25.70
37032;DHT22;22940;52.266;10.536;2022-11-13T05:23:17;6.00;25.10
37032;DHT22;22940;52.266;10.536;2022-11-13T05:25:42;6.10;24.40
37032;DHT22;22940;52.266;10.536;2022-11-13T05:28:08;6.10;23.00
37032;DHT22;22940;52.266;10.536;2022-11-13T05:30:33;6.10;22.20
37032;DHT22;22940;52.266;10.536;2022-11-13T05:32:59;6.20;21.90
37032;DHT22;22940;52.266;10.536;2022-11-13T05:35:24;6.30;21.20
37032;DHT22;22940;52.266;10.536;2022-11-13T05:37:50;6.10;19.70
37032;DHT22;22940;52.266;10.536;2022-11-13T05:40:15;6.30;20.80
37032;DHT22;22940;52.266;10.536;2022-11-13T05:42:41;6.60;19.10
37032;DHT22;22940;52.266;10.536;2022-11-13T05:45:07;6.50;17.00
37032;DHT22;22940;52.266;10.536;2022-11-13T05:47:32;6.50;16.80
37032;DHT22;22940;52.266;10.536;2022-11-13T05:49:58;6.60;16.00
37032;DHT22;22940;52.266;10.536;2022-11-13T05:52:23;6.60;14.90
37032;DHT22;22940;52.266;10.536;2022-11-13T05:54:49;6.70;13.10
37032;DHT22;22940;52.266;10.536;2022-11-13T05:57:14;6.60;12.70
37032;DHT22;22940;52.266;10.536;2022-11-13T05:59:40;6.40;13.30
37032;DHT22;22940;52.266;10.536;2022-11-13T06:02:05;6.40;14.30
37032;DHT22;22940;52.266;10.536;2022-11-13T06:04:31;6.20;16.50
37032;DHT22;22940;52.266;10.536;2022-11-13T06:06:56;6.10;19.00
37032;DHT22;22940;52.266;10.536;2022-11-13T06:09:22;6.10;19.60
37032;DHT22;22940;52.266;10.536;2022-11-13T06:11:47;6.10;22.00
37032;DHT22;22940;52.266;10.536;2022-11-13T06:14:13;6.20;22.40
37032;DHT22;22940;52.266;10.536;2022-11-13T06:16:38;6.40;21.60
37032;DHT22;22940;52.266;10.536;2022-11-13T06:19:05;6.50;19.00
37032;DHT22;22940;52.266;10.536;2022-11-13T06:21:31;6.60;19.00
37032;DHT22;22940;52.266;10.536;2022-11-13T06:23:57;6.60;19.60
37032;DHT22;22940;52.266;10.536;2022-11-13T06:26:24;6.70;18.60
37032;DHT22;22940;52.266;10.536;2022-11-13T06:28:50;6.70;17.80
37032;DHT22;22940;52.266;10.536;2022-11-13T06:31:27;6.70;17.90
37032;DHT22;22940;52.266;10.536;2022-11-13T06:33:53;6.60;18.10
37032;DHT22;22940;52.266;10.536;2022-11-13T06:36:20;6.60;19.10
37032;DHT22;22940;52.266;10.536;2022-11-13T06:38:46;6.60;18.90
37032;DHT22;22940;52.266;10.536;2022-11-13T06:41:15;6.50;19.40
37032;DHT22;22940;52.266;10.536;2022-11-13T06:43:41;6.50;20.20
37032;DHT22;22940;52.266;10.536;2022-11-13T06:46:09;6.50;19.80
37032;DHT22;22940;52.266;10.536;2022-11-13T06:48:35;6.50;19.80
37032;DHT22;22940;52.266;10.536;2022-11-13T06:51:01;6.40;19.70
37032;DHT22;22940;52.266;10.536;2022-11-13T06:53:27;6.40;21.20
37032;DHT22;22940;52.266;10.536;2022-11-13T06:55:52;6.50;21.10
37032;DHT22;22940;52.266;10.536;2022-11-13T06:58:17;6.40;21.10
37032;DHT22;22940;52.266;10.536;2022-11-13T07:00:43;6.30;22.90
37032;DHT22;22940;52.266;10.536;2022-11-13T07:03:15;6.30;26.40
37032;DHT22;22940;52.266;10.536;2022-11-13T07:05:41;6.40;26.40
37032;DHT22;22940;52.266;10.536;2022-11-13T07:08:07;6.40;24.60
37032;DHT22;22940;52.266;10.536;2022-11-13T07:10:32;6.40;24.20
37032;DHT22;22940;52.266;10.536;2022-11-13T07:12:58;6.50;25.60
37032;DHT22;22940;52.266;10.536;2022-11-13T07:15:24;6.50;24.60
37032;DHT22;22940;52.266;10.536;2022-11-13T07:17:50;6.50;24.40
37032;DHT22;22940;52.266;10.536;2022-11-13T07:20:15;6.30;24.40
37032;DHT22;22940;52.266;10.536;2022-11-13T07:22:41;6.10;26.60
37032;DHT22;22940;52.266;10.536;2022-11-13T07:25:06;6.10;31.00
37032;DHT22;22940;52.266;10.536;2022-11-13T07:27:32;6.00;40.90
37032;DHT22;22940;52.266;10.536;2022-11-13T07:29:57;6.30;39.10
37032;DHT22;22940;52.266;10.536;2022-11-13T07:32:23;6.00;42.70
37032;DHT22;22940;52.266;10.536;2022-11-13T07:34:48;6.20;48.60
37032;DHT22;22940;52.266;10.536;2022-11-13T07:37:14;6.40;45.90
37032;DHT22;22940;52.266;10.536;2022-11-13T07:39:39;6.60;42.40
37032;DHT22;22940;52.266;10.536;2022-11-13T07:42:05;6.60;37.60
37032;DHT22;22940;52.266;10.536;2022-11-13T07:44:31;6.60;37.00
37032;DHT22;22940;52.266;10.536;2022-11-13T07:46:56;6.50;37.40
37032;DHT22;22940;52.266;10.536;2022-11-13T07:49:22;6.40;39.70
37032;DHT22;22940;52.266;10.536;2022-11-13T07:51:47;6.70;38.70
37032;DHT22;22940;52.266;10.536;2022-11-13T07:54:13;6.70;37.10
37032;DHT22;22940;52.266;10.536;2022-11-13T07:56:38;6.70;37.20
37032;DHT22;22940;52.266;10.536;2022-11-13T07:59:04;6.70;37.60
37032;DHT22;22940;52.266;10.536;2022-11-13T08:01:29;6.80;36.20
37032;DHT22;22940;52.266;10.536;2022-11-13T08:03:55;6.90;37.70
37032;DHT22;22940;52.266;10.536;2022-11-13T08:06:20;7.10;36.90
37032;DHT22;22940;52.266;10.536;2022-11-13T08:08:46;6.90;36.80
37032;DHT22;22940;52.266;10.536;2022-11-13T08:11:12;6.80;35.70
37032;DHT22;22940;52.266;10.536;2022-11-13T08:13:37;6.80;38.80
37032;DHT22;22940;52.266;10.536;2022-11-13T08:16:03;6.70;41.10
37032;DHT22;22940;52.266;10.536;2022-11-13T08:18:29;6.80;41.80
37032;DHT22;22940;52.266;10.536;2022-11-13T08:20:54;7.00;39.60
37032;DHT22;22940;52.266;10.536;2022-11-13T08:23:20;7.10;38.10
37032;DHT22;22940;52.266;10.536;2022-11-13T08:25:45;7.10;37.70
37032;DHT22;22940;52.266;10.536;2022-11-13T08:28:11;7.10;37.80
37032;DHT22;22940;52.266;10.536;2022-11-13T08:30:37;7.10;39.20
37032;DHT22;22940;52.266;10.536;2022-11-13T08:33:02;7.10;38.80
37032;DHT22;22940;52.266;10.536;2022-11-13T08:35:28;7.20;37.40
37032;DHT22;22940;52.266;10.536;2022-11-13T08:37:53;7.50;36.80
37032;DHT22;22940;52.266;10.536;2022-11-13T08:40:21;7.70;33.90
37032;DHT22;22940;52.266;10.536;2022-11-13T08:42:46;7.80;28.80
37032;DHT22;22940;52.266;10.536;2022-11-13T08:45:12;7.90;24.60
37032;DHT22;22940;52.266;10.536;2022-11-13T08:47:38;8.00;20.70
37032;DHT22;22940;52.266;10.536;2022-11-13T08:50:04;8.00;20.30
37032;DHT22;22940;52.266;10.536;2022-11-13T08:52:29;8.20;18.40
37032;DHT22;22940;52.266;10.536;2022-11-13T08:54:55;8.40;15.30
37032;DHT22;22940;52.266;10.536;2022-11-13T08:57:20;8.40;11.30
37032;DHT22;22940;52.266;10.536;2022-11-13T08:59:46;8.60;8.80
37032;DHT22;22940;52.266;10.536;2022-11-13T09:02:12;8.70;7.40
37032;DHT22;22940;52.266;10.536;2022-11-13T09:04:38;8.60;5.20
37032;DHT22;22940;52.266;10.536;2022-11-13T09:07:04;8.60;5.10
37032;DHT22;22940;52.266;10.536;2022-11-13T09:09:29;8.40;6.40
37032;DHT22;22940;52.266;10.536;2022-11-13T09:11:55;8.70;6.80
37032;DHT22;22940;52.266;10.536;2022-11-13T09:14:20;8.80;5.80
37032;DHT22;22940;52.266;10.536;2022-11-13T09:16:46;9.00;3.10
37032;DHT22;22940;52.266;10.536;2022-11-13T09:19:11;9.00;1.00
37032;DHT22;22940;52.266;10.536;2022-11-13T09:21:37;9.00;1.00
37032;DHT22;22940;52.266;10.536;2022-11-13T09:24:02;8.70;1.00
37032;DHT22;22940;52.266;10.536;2022-11-13T09:26:28;8.70;2.30
37032;DHT22;22940;52.266;10.536;2022-11-13T09:28:53;8.80;1.00
37032;DHT22;22940;52.266;10.536;2022-11-13T09:31:19;8.90;3.80
37032;DHT22;22940;52.266;10.536;2022-11-13T09:33:44;9.10;11.00
37032;DHT22;22940;52.266;10.536;2022-11-13T09:36:11;9.10;13.80
37032;DHT22;22940;52.266;10.536;2022-11-13T09:38:37;9.20;10.40
37032;DHT22;22940;52.266;10.536;2022-11-13T09:41:04;9.30;12.50
37032;DHT22;22940;52.266;10.536;2022-11-13T09:43:42;9.50;1.00
37032;DHT22;22940;52.266;10.536;2022-11-13T09:49:00;9.60;1.00
37032;DHT22;22940;52.266;10.536;2022-11-13T09:51:28;9.60;1.00
37032;DHT22;22940;52.266;10.536;2022-11-13T09:53:54;9.50;1.00
37032;DHT22;22940;52.266;10.536;2022-11-13T09:56:24;10.30;1.00
37032;DHT22;22940;52.266;10.536;2022-11-13T10:01:25;11.70;1.00
37032;DHT22;22940;52.266;10.536;2022-11-13T10:03:55;12.00;1.00
37032;DHT22;22940;52.266;10.536;2022-11-13T10:06:23;12.10;1.00
37032;DHT22;22940;52.266;10.536;2022-11-13T10:08:55;12.20;1.00
37032;DHT22;22940;52.266;10.536;2022-11-13T10:14:06;12.30;1.00
37032;DHT22;22940;52.266;10.536;2022-11-13T10:16:40;12.40;1.00
37032;DHT22;22940;52.266;10.536;2022-11-13T10:21:48;12.50;1.00
37032;DHT22;22940;52.266;10.536;2022-11-13T10:24:16;12.50;1.00
37032;DHT22;22940;52.266;10.536;2022-11-13T10:26:42;12.50;1.00
37032;DHT22;22940;52.266;10.536;2022-11-13T10:29:09;12.70;1.00
37032;DHT22;22940;52.266;10.536;2022-11-13T10:31:46;12.90;1.00
37032;DHT22;22940;52.266;10.536;2022-11-13T10:34:12;12.80;1.00
37032;DHT22;22940;52.266;10.536;2022-11-13T10:36:41;12.80;1.00
37032;DHT22;22940;52.266;10.536;2022-11-13T10:39:08;12.70;1.00
37032;DHT22;22940;52.266;10.536;2022-11-13T10:41:50;12.70;1.00
37032;DHT22;22940;52.266;10.536;2022-11-13T10:44:20;12.50;1.00
37032;DHT22;22940;52.266;10.536;2022-11-13T10:46:46;12.40;1.00
37032;DHT22;22940;52.266;10.536;2022-11-13T10:51:38;12.20;1.00
37032;DHT22;22940;52.266;10.536;2022-11-13T10:54:18;12.10;1.00
37032;DHT22;22940;52.266;10.536;2022-11-13T10:56:44;12.00;1.00
37032;DHT22;22940;52.266;10.536;2022-11-13T10:59:20;11.80;1.00
37032;DHT22;22940;52.266;10.536;2022-11-13T11:01:46;11.70;1.00
37032;DHT22;22940;52.266;10.536;2022-11-13T11:04:13;11.60;1.00
37032;DHT22;22940;52.266;10.536;2022-11-13T11:06:39;11.60;1.00
37032;DHT22;22940;52.266;10.536;2022-11-13T11:09:06;11.40;1.00
37032;DHT22;22940;52.266;10.536;2022-11-13T11:11:32;11.30;1.00
37032;DHT22;22940;52.266;10.536;2022-11-13T11:14:18;11.20;1.00
37032;DHT22;22940;52.266;10.536;2022-11-13T11:16:45;11.20;1.00
37032;DHT22;22940;52.266;10.536;2022-11-13T11:19:12;11.20;1.00
37032;DHT22;22940;52.266;10.536;2022-11-13T11:21:40;11.20;1.00
37032;DHT22;22940;52.266;10.536;2022-11-13T11:24:10;11.20;1.00
37032;DHT22;22940;52.266;10.536;2022-11-13T11:26:39;11.20;1.00
37032;DHT22;22940;52.266;10.536;2022-11-13T11:31:46;11.20;1.00
37032;DHT22;22940;52.266;10.536;2022-11-13T11:34:19;11.30;1.00
37032;DHT22;22940;52.266;10.536;2022-11-13T11:42:18;10.90;1.00
37032;DHT22;22940;52.266;10.536;2022-11-13T11:44:41;10.80;1.00
37032;DHT22;22940;52.266;10.536;2022-11-13T11:47:13;10.80;1.00
37032;DHT22;22940;52.266;10.536;2022-11-13T11:49:39;10.80;1.00
37032;DHT22;22940;52.266;10.536;2022-11-13T11:55:03;10.70;1.00
37032;DHT22;22940;52.266;10.536;2022-11-13T12:00:18;10.60;1.00
37032;DHT22;22940;52.266;10.536;2022-11-13T12:05:33;10.60;1.00
37032;DHT22;22940;52.266;10.536;2022-11-13T12:08:09;10.60;1.00
37032;DHT22;22940;52.266;10.536;2022-11-13T12:10:49;10.60;1.00
37032;DHT22;22940;52.266;10.536;2022-11-13T12:13:20;10.50;1.00
37032;DHT22;22940;52.266;10.536;2022-11-13T12:21:25;10.30;1.00
37032;DHT22;22940;52.266;10.536;2022-11-13T12:27:04;10.30;1.00
37032;DHT22;22940;52.266;10.536;2022-11-13T12:32:06;10.10;1.00
37032;DHT22;22940;52.266;10.536;2022-11-13T12:34:41;10.10;1.00
37032;DHT22;22940;52.266;10.536;2022-11-13T12:37:12;10.00;1.00
37032;DHT22;22940;52.266;10.536;2022-11-13T12:39:52;10.00;1.00
37032;DHT22;22940;52.266;10.536;2022-11-13T12:44:47;9.90;1.00
37032;DHT22;22940;52.266;10.536;2022-11-13T12:47:14;9.90;1.00
37032;DHT22;22940;52.266;10.536;2022-11-13T12:49:41;9.90;1.00
37032;DHT22;22940;52.266;10.536;2022-11-13T12:52:17;9.90;1.00
37032;DHT22;22940;52.266;10.536;2022-11-13T12:54:44;9.90;1.00
37032;DHT22;22940;52.266;10.536;2022-11-13T12:59:41;9.90;1.00
37032;DHT22;22940;52.266;10.536;2022-11-13T13:17:24;9.80;1.00
37032;DHT22;22940;52.266;10.536;2022-11-13T13:20:00;9.80;1.00
37032;DHT22;22940;52.266;10.536;2022-11-13T13:22:33;9.80;1.00
37032;DHT22;22940;52.266;10.536;2022-11-13T13:25:22;9.80;1.00
37032;DHT22;22940;52.266;10.536;2022-11-13T13:27:44;9.80;1.00
37032;DHT22;22940;52.266;10.536;2022-11-13T13:30:21;9.80;1.00
37032;DHT22;22940;52.266;10.536;2022-11-13T13:35:33;9.70;1.90
37032;DHT22;22940;52.266;10.536;2022-11-13T13:38:21;9.70;3.30
37032;DHT22;22940;52.266;10.536;2022-11-13T13:43:41;9.70;5.20
37032;DHT22;22940;52.266;10.536;2022-11-13T13:46:28;9.70;5.70
37032;DHT22;22940;52.266;10.536;2022-11-13T13:48:55;9.60;7.60
37032;DHT22;22940;52.266;10.536;2022-11-13T13:51:26;9.60;9.10
37032;DHT22;22940;52.266;10.536;2022-11-13T13:53:52;9.60;10.20
37032;DHT22;22940;52.266;10.536;2022-11-13T13:56:19;9.60;10.30
37032;DHT22;22940;52.266;10.536;2022-11-13T13:58:45;9.70;10.30
37032;DHT22;22940;52.266;10.536;2022-11-13T14:01:12;9.60;12.10
37032;DHT22;22940;52.266;10.536;2022-11-13T14:03:38;9.50;16.20
37032;DHT22;22940;52.266;10.536;2022-11-13T14:06:18;9.50;20.20
37032;DHT22;22940;52.266;10.536;2022-11-13T14:08:44;9.50;22.50
37032;DHT22;22940;52.266;10.536;2022-11-13T14:11:20;9.50;24.90
37032;DHT22;22940;52.266;10.536;2022-11-13T14:13:46;9.50;26.20
37032;DHT22;22940;52.266;10.536;2022-11-13T14:16:11;9.50;27.30
37032;DHT22;22940;52.266;10.536;2022-11-13T14:18:38;9.50;28.60
37032;DHT22;22940;52.266;10.536;2022-11-13T14:21:06;9.40;29.00
37032;DHT22;22940;52.266;10.536;2022-11-13T14:23:35;9.50;30.10
37032;DHT22;22940;52.266;10.536;2022-11-13T14:26:02;9.40;31.70
37032;DHT22;22940;52.266;10.536;2022-11-13T14:28:30;9.40;34.10
37032;DHT22;22940;52.266;10.536;2022-11-13T14:30:57;9.40;33.50
37032;DHT22;22940;52.266;10.536;2022-11-13T14:33:26;9.40;34.30
37032;DHT22;22940;52.266;10.536;2022-11-13T14:35:53;9.40;36.20
37032;DHT22;22940;52.266;10.536;2022-11-13T14:38:24;9.40;35.60
37032;DHT22;22940;52.266;10.536;2022-11-13T14:40:50;9.30;37.00
37032;DHT22;22940;52.266;10.536;2022-11-13T14:43:20;9.30;36.50
37032;DHT22;22940;52.266;10.536;2022-11-13T14:45:57;9.20;37.70
37032;DHT22;22940;52.266;10.536;2022-11-13T14:48:32;9.30;37.70
37032;DHT22;22940;52.266;10.536;2022-11-13T14:51:00;9.20;39.10
37032;DHT22;22940;52.266;10.536;2022-11-13T14:53:27;9.20;39.90
37032;DHT22;22940;52.266;10.536;2022-11-13T14:55:54;9.20;39.50
37032;DHT22;22940;52.266;10.536;2022-11-13T14:58:26;9.20;39.90
37032;DHT22;22940;52.266;10.536;2022-11-13T15:00:52;9.20;41.30
37032;DHT22;22940;52.266;10.536;2022-11-13T15:03:17;9.30;40.80
37032;DHT22;22940;52.266;10.536;2022-11-13T15:05:43;9.30;40.00
37032;DHT22;22940;52.266;10.536;2022-11-13T15:08:12;9.30;39.90
37032;DHT22;22940;52.266;10.536;2022-11-13T15:10:38;9.30;40.00
37032;DHT22;22940;52.266;10.536;2022-11-13T15:13:08;9.10;42.70
37032;DHT22;22940;52.266;10.536;2022-11-13T15:15:34;9.20;48.40
37032;DHT22;22940;52.266;10.536;2022-11-13T15:18:00;9.10;51.00
37032;DHT22;22940;52.266;10.536;2022-11-13T15:20:26;9.10;56.40
37032;DHT22;22940;52.266;10.536;2022-11-13T15:22:52;9.10;66.30
37032;DHT22;22940;52.266;10.536;2022-11-13T15:25:19;9.10;71.80
37032;DHT22;22940;52.266;10.536;2022-11-13T15:27:44;9.20;73.80
37032;DHT22;22940;52.266;10.536;2022-11-13T15:30:10;9.20;75.70
37032;DHT22;22940;52.266;10.536;2022-11-13T15:32:36;9.30;74.90
37032;DHT22;22940;52.266;10.536;2022-11-13T15:35:02;9.30;75.00
37032;DHT22;22940;52.266;10.536;2022-11-13T15:37:28;9.30;74.90
37032;DHT22;22940;52.266;10.536;2022-11-13T15:39:53;9.30;74.80
37032;DHT22;22940;52.266;10.536;2022-11-13T15:42:20;9.30;76.10
37032;DHT22;22940;52.266;10.536;2022-11-13T15:44:48;9.30;77.60
37032;DHT22;22940;52.266;10.536;2022-11-13T15:47:33;9.30;78.60
37032;DHT22;22940;52.266;10.536;2022-11-13T15:49:59;9.30;82.00
37032;DHT22;22940;52.266;10.536;2022-11-13T15:52:25;9.30;84.20
37032;DHT22;22940;52.266;10.536;2022-11-13T15:54:51;9.30;87.00
37032;DHT22;22940;52.266;10.536;2022-11-13T15:59:42;9.30;91.90
37032;DHT22;22940;52.266;10.536;2022-11-13T16:02:08;9.30;92.60
37032;DHT22;22940;52.266;10.536;2022-11-13T16:04:34;9.30;92.20
37032;DHT22;22940;52.266;10.536;2022-11-13T16:07:02;9.30;91.60
37032;DHT22;22940;52.266;10.536;2022-11-13T16:09:28;9.40;91.10
37032;DHT22;22940;52.266;10.536;2022-11-13T16:11:54;9.40;90.60
37032;DHT22;22940;52.266;10.536;2022-11-13T16:14:20;9.40;90.70
37032;DHT22;22940;52.266;10.536;2022-11-13T16:16:46;9.30;90.80
37032;DHT22;22940;52.266;10.536;2022-11-13T16:19:12;9.40;90.40
37032;DHT22;22940;52.266;10.536;2022-11-13T16:21:39;9.40;89.30
37032;DHT22;22940;52.266;10.536;2022-11-13T16:24:05;9.40;89.00
37032;DHT22;22940;52.266;10.536;2022-11-13T16:26:30;9.40;88.30
37032;DHT22;22940;52.266;10.536;2022-11-13T16:28:56;9.30;89.00
37032;DHT22;22940;52.266;10.536;2022-11-13T16:31:22;9.40;89.00
37032;DHT22;22940;52.266;10.536;2022-11-13T16:33:47;9.40;88.20
37032;DHT22;22940;52.266;10.536;2022-11-13T16:36:14;9.50;86.90
37032;DHT22;22940;52.266;10.536;2022-11-13T16:38:40;9.60;83.50
37032;DHT22;22940;52.266;10.536;2022-11-13T16:41:06;9.60;80.40
37032;DHT22;22940;52.266;10.536;2022-11-13T16:43:32;9.60;77.90